Time;durP1;ratioP1;P1;durP2;ratioP2;P2;SDS_P1;SDS_P2;PMS_P1;PMS_P2;Temp;Humidity;BMP_temperature;BMP_pressure;BME280_temperature;BME280_humidity;BME280_pressure;Samples;Min_cycle;Max_cycle;Signal;HPM_P1;HPM_P2
2023/08/01 00:00:41;;;;;;;5.00;4.43;;;;;;;16.42;nan;96074.41;5013843;28;20231;-62
2023/08/01 00:03:09;;;;;;;3.83;3.53;;;;;;;16.45;nan;96071.22;5008353;28;20663;-62
2023/08/01 00:05:38;;;;;;;4.53;4.00;;;;;;;16.34;nan;96071.09;5009102;28;20296;-63
2023/08/01 00:08:06;;;;;;;4.77;3.90;;;;;;;16.43;nan;96052.75;5008022;28;20948;-62
2023/08/01 00:10:34;;;;;;;4.57;3.70;;;;;;;16.39;nan;96045.50;5015125;28;20208;-63
2023/08/01 00:13:02;;;;;;;4.63;4.03;;;;;;;16.18;nan;96047.91;4962070;28;20666;-63
2023/08/01 00:15:30;;;;;;;4.77;4.37;;;;;;;16.19;nan;96036.97;5015896;28;20208;-62
2023/08/01 00:17:58;;;;;;;5.33;4.10;;;;;;;16.08;nan;96037.09;5010794;28;20204;-64
2023/08/01 00:20:26;;;;;;;4.20;3.90;;;;;;;16.06;nan;96021.28;5016157;28;20279;-63
2023/08/01 00:22:55;;;;;;;4.87;4.47;;;;;;;16.09;nan;96020.00;4966503;28;20228;-64
2023/08/01 00:25:22;;;;;;;4.40;4.10;;;;;;;16.16;nan;96023.28;5022043;28;20200;-64
2023/08/01 00:27:51;;;;;;;4.40;4.10;;;;;;;16.23;nan;96025.78;4888239;28;20737;-63
2023/08/01 00:30:18;;;;;;;4.50;4.00;;;;;;;16.18;nan;96010.50;5015487;28;20205;-65
2023/08/01 00:32:46;;;;;;;4.67;4.37;;;;;;;16.19;nan;96009.44;5011319;28;20236;-64
2023/08/01 00:35:14;;;;;;;4.50;4.10;;;;;;;16.10;nan;96002.91;5012201;28;20298;-63
2023/08/01 00:37:42;;;;;;;5.60;4.67;;;;;;;16.11;nan;96005.34;5014578;28;20644;-64
2023/08/01 00:40:12;;;;;;;5.10;4.70;;;;;;;16.11;nan;96007.19;5016996;28;20239;-63
2023/08/01 00:42:39;;;;;;;4.80;4.40;;;;;;;16.17;nan;95991.00;4958068;28;20311;-63
2023/08/01 00:45:09;;;;;;;4.37;3.90;;;;;;;16.14;nan;95988.00;5015801;28;20205;-63
2023/08/01 00:47:36;;;;;;;4.83;4.33;;;;;;;16.12;nan;95980.25;5010496;28;20228;-63
2023/08/01 00:50:05;;;;;;;4.33;3.97;;;;;;;16.06;nan;95981.22;5015253;28;20211;-63
2023/08/01 00:52:32;;;;;;;5.00;4.60;;;;;;;16.09;nan;95970.03;4968141;28;20630;-63
2023/08/01 00:55:00;;;;;;;4.70;4.20;;;;;;;16.06;nan;95966.00;5018366;28;20205;-63
2023/08/01 00:57:29;;;;;;;5.80;5.20;;;;;;;16.06;nan;95967.84;4883940;28;20216;-64
2023/08/01 00:59:57;;;;;;;4.53;4.23;;;;;;;16.06;nan;95962.50;5018108;28;20224;-63
2023/08/01 01:02:25;;;;;;;5.60;4.17;;;;;;;16.05;nan;95944.88;5011987;28;20240;-63
2023/08/01 01:04:53;;;;;;;6.70;4.50;;;;;;;16.10;nan;95939.63;5016398;28;20201;-63
2023/08/01 01:07:22;;;;;;;4.60;4.10;;;;;;;16.08;nan;95946.25;5008848;28;20864;-63
2023/08/01 01:09:49;;;;;;;4.60;4.20;;;;;;;16.07;nan;95950.78;5021788;28;20211;-63
2023/08/01 01:12:17;;;;;;;7.20;4.60;;;;;;;16.07;nan;95940.09;5013828;28;20604;-64
2023/08/01 01:14:46;;;;;;;7.27;5.87;;;;;;;16.00;nan;95944.81;5017375;28;20377;-64
2023/08/01 01:17:14;;;;;;;5.30;4.80;;;;;;;16.03;nan;95945.13;4963225;28;20319;-63
2023/08/01 01:19:42;;;;;;;5.13;4.50;;;;;;;15.98;nan;95936.25;5014629;28;20235;-63
2023/08/01 01:22:11;;;;;;;5.13;4.53;;;;;;;16.06;nan;95943.81;5013022;28;20228;-63
2023/08/01 01:24:40;;;;;;;4.27;3.90;;;;;;;16.05;nan;95936.84;5021325;28;20208;-63
2023/08/01 01:27:09;;;;;;;5.27;4.60;;;;;;;16.01;nan;95936.56;4967385;28;20209;-62
2023/08/01 01:29:36;;;;;;;5.40;4.60;;;;;;;16.02;nan;95934.69;5014665;28;20210;-62
2023/08/01 01:32:05;;;;;;;4.97;4.57;;;;;;;16.00;nan;95937.63;4889606;28;20232;-63
2023/08/01 01:34:33;;;;;;;4.67;4.27;;;;;;;15.96;nan;95931.16;5020211;28;20661;-62
2023/08/01 01:37:01;;;;;;;6.43;5.10;;;;;;;15.91;nan;95925.78;5011120;28;20717;-62
2023/08/01 01:39:30;;;;;;;5.27;4.77;;;;;;;15.90;nan;95919.59;5020483;28;20205;-62
2023/08/01 01:41:58;;;;;;;5.83;5.00;;;;;;;15.80;nan;95922.13;5008776;28;20335;-63
2023/08/01 01:44:25;;;;;;;5.27;4.87;;;;;;;15.84;nan;95928.59;5011765;28;20207;-64
2023/08/01 01:46:53;;;;;;;6.37;5.90;;;;;;;15.84;nan;95928.59;5014180;28;20557;-63
2023/08/01 01:49:21;;;;;;;5.03;4.63;;;;;;;15.89;nan;95927.84;5012992;28;20216;-63
2023/08/01 01:51:48;;;;;;;6.37;4.53;;;;;;;15.86;nan;95921.13;4959475;28;20247;-62
2023/08/01 01:54:16;;;;;;;5.77;4.43;;;;;;;15.89;nan;95923.34;5011404;28;20208;-62
2023/08/01 01:56:45;;;;;;;5.23;4.77;;;;;;;15.88;nan;95924.38;4962404;28;20911;-62
2023/08/01 01:59:13;;;;;;;6.10;5.13;;;;;;;15.82;nan;95917.34;5013830;28;20204;-63
2023/08/01 02:01:40;;;;;;;6.23;5.67;;;;;;;15.86;nan;95915.78;5013706;28;20237;-62
2023/08/01 02:04:08;;;;;;;8.27;5.10;;;;;;;15.90;nan;95910.78;5014208;28;20199;-62
2023/08/01 02:06:36;;;;;;;6.27;5.67;;;;;;;15.77;nan;95918.09;4889150;28;20821;-62
2023/08/01 02:09:04;;;;;;;6.27;5.23;;;;;;;15.81;nan;95913.06;5016208;28;20204;-62
2023/08/01 02:11:32;;;;;;;6.10;5.43;;;;;;;15.84;nan;95909.06;5009956;28;20224;-63
2023/08/01 02:14:01;;;;;;;6.10;5.50;;;;;;;15.83;nan;95902.94;5021286;28;20300;-63
2023/08/01 02:16:29;;;;;;;6.60;6.00;;;;;;;15.71;nan;95910.25;5016252;28;20205;-62
2023/08/01 02:18:57;;;;;;;5.73;5.23;;;;;;;15.71;nan;95908.41;4961958;28;20216;-63
2023/08/01 02:21:25;;;;;;;5.90;5.30;;;;;;;15.73;nan;95902.81;5014293;28;20615;-63
2023/08/01 02:23:52;;;;;;;6.17;5.30;;;;;;;15.71;nan;95911.06;4951879;28;20220;-61
2023/08/01 02:26:22;;;;;;;6.70;5.43;;;;;;;15.70;nan;95908.63;5016466;28;20580;-62
2023/08/01 02:28:50;;;;;;;7.10;6.00;;;;;;;15.76;nan;95905.78;4953203;28;20239;-61
2023/08/01 02:31:19;;;;;;;6.67;5.97;;;;;;;15.67;nan;95893.09;5013861;28;20344;-63
2023/08/01 02:33:46;;;;;;;6.30;5.80;;;;;;;15.61;nan;95908.28;5010122;28;20204;-61
2023/08/01 02:36:14;;;;;;;6.77;6.17;;;;;;;15.55;nan;95909.28;5015068;28;20261;-61
2023/08/01 02:38:42;;;;;;;6.17;5.50;;;;;;;15.56;nan;95906.34;4884357;28;21509;-62
2023/08/01 02:41:09;;;;;;;8.67;5.73;;;;;;;15.52;nan;95904.41;5015612;28;20224;-61
2023/08/01 02:43:37;;;;;;;7.03;6.20;;;;;;;15.51;nan;95903.59;5005116;28;20201;-62
2023/08/01 02:46:05;;;;;;;5.73;5.30;;;;;;;15.43;nan;95877.34;5013207;28;20227;-62
2023/08/01 02:48:35;;;;;;;6.27;5.70;;;;;;;15.48;nan;95894.22;5011736;28;20243;-63
2023/08/01 02:51:03;;;;;;;7.13;5.80;;;;;;;15.58;nan;95896.22;5015700;28;20200;-62
2023/08/01 02:53:31;;;;;;;8.23;5.20;;;;;;;15.59;nan;95895.16;4960661;28;20800;-61
2023/08/01 02:55:58;;;;;;;6.10;5.60;;;;;;;15.54;nan;95888.97;5012564;28;20208;-63
2023/08/01 02:58:26;;;;;;;6.57;5.70;;;;;;;15.50;nan;95875.28;4965511;28;20263;-61
2023/08/01 03:00:54;;;;;;;6.67;5.83;;;;;;;15.63;nan;95872.25;5007057;28;20923;-63
2023/08/01 03:03:22;;;;;;;6.43;5.83;;;;;;;15.42;nan;95838.38;5009207;28;20212;-63
2023/08/01 03:05:51;;;;;;;7.33;5.90;;;;;;;15.55;nan;95858.56;5014036;28;20208;-64
2023/08/01 03:08:19;;;;;;;7.23;6.47;;;;;;;15.53;nan;95850.78;4922130;28;20877;-64
2023/08/01 03:10:47;;;;;;;6.27;5.67;;;;;;;15.50;nan;95851.28;4913426;28;20553;-63
2023/08/01 03:13:14;;;;;;;6.80;6.10;;;;;;;15.40;nan;95849.28;5012263;28;20616;-61
2023/08/01 03:15:42;;;;;;;6.77;5.80;;;;;;;15.36;nan;95840.16;5009025;28;20667;-62
2023/08/01 03:18:10;;;;;;;6.17;5.57;;;;;;;15.43;nan;95839.97;5016343;28;20217;-62
2023/08/01 03:20:37;;;;;;;6.40;5.87;;;;;;;15.45;nan;95844.00;5009320;28;20208;-62
2023/08/01 03:23:07;;;;;;;7.27;6.07;;;;;;;15.42;nan;95843.72;4939030;28;21171;-61
2023/08/01 03:25:34;;;;;;;6.80;6.10;;;;;;;15.41;nan;95832.22;4980086;28;20216;-63
2023/08/01 03:28:03;;;;;;;7.00;6.30;;;;;;;15.40;nan;95835.94;4983607;28;20213;-65
2023/08/01 03:30:32;;;;;;;7.00;6.27;;;;;;;15.51;nan;95846.72;4995140;28;20203;-61
2023/08/01 03:33:00;;;;;;;7.03;5.60;;;;;;;15.53;nan;95845.44;4980055;28;20228;-65
2023/08/01 03:35:28;;;;;;;6.40;5.90;;;;;;;15.56;nan;95854.81;4999178;28;20205;-66
2023/08/01 03:37:56;;;;;;;5.90;5.40;;;;;;;15.56;nan;95863.63;4972342;28;20216;-63
2023/08/01 03:40:25;;;;;;;6.47;5.87;;;;;;;15.54;nan;95868.41;4976896;28;20235;-64
2023/08/01 03:42:53;;;;;;;7.43;6.73;;;;;;;15.59;nan;95865.00;4926309;28;20228;-63
2023/08/01 03:45:21;;;;;;;6.70;6.00;;;;;;;15.66;nan;95868.28;5012691;28;20297;-63
2023/08/01 03:47:49;;;;;;;6.40;5.80;;;;;;;15.54;nan;95870.28;5004561;28;20742;-63
2023/08/01 03:50:17;;;;;;;6.47;5.20;;;;;;;15.55;nan;95862.00;5010518;28;20220;-64
2023/08/01 03:52:45;;;;;;;6.27;5.70;;;;;;;15.59;nan;95857.00;5006292;28;20231;-63
2023/08/01 03:55:13;;;;;;;6.27;5.67;;;;;;;15.67;nan;95855.72;5010595;28;20212;-63
2023/08/01 03:57:42;;;;;;;7.23;5.67;;;;;;;15.68;nan;95868.03;4951513;28;20222;-62
2023/08/01 04:00:13;;;;;;;6.10;5.60;;;;;;;15.70;nan;95866.72;5013725;28;20209;-63
2023/08/01 04:02:42;;;;;;;6.20;5.63;;;;;;;15.73;nan;95868.09;4960836;28;20791;-62
2023/08/01 04:05:11;;;;;;;5.97;5.43;;;;;;;15.60;nan;95867.41;5016510;28;20216;-62
2023/08/01 04:07:39;;;;;;;6.13;5.53;;;;;;;15.63;nan;95874.13;5010669;28;20204;-63
2023/08/01 04:10:08;;;;;;;7.10;6.50;;;;;;;15.57;nan;95862.56;5014111;28;20672;-61
2023/08/01 04:12:35;;;;;;;8.93;6.20;;;;;;;15.43;nan;95837.31;4959337;28;20282;-62
2023/08/01 04:15:06;;;;;;;5.83;5.43;;;;;;;15.63;nan;95850.91;5009513;28;20213;-62
2023/08/01 04:17:33;;;;;;;5.57;5.17;;;;;;;15.66;nan;95851.44;4884130;28;20201;-62
2023/08/01 04:20:01;;;;;;;6.70;6.10;;;;;;;15.65;nan;95844.50;5017618;28;20972;-63
2023/08/01 04:22:29;;;;;;;7.37;5.77;;;;;;;15.67;nan;95840.53;5011814;28;20699;-62
2023/08/01 04:24:56;;;;;;;5.53;5.03;;;;;;;15.54;nan;95822.25;5016614;28;20207;-64
2023/08/01 04:27:24;;;;;;;5.80;5.30;;;;;;;15.60;nan;95835.38;4958193;28;20211;-63
2023/08/01 04:29:52;;;;;;;5.83;5.37;;;;;;;15.52;nan;95821.66;5017476;28;20209;-60
2023/08/01 04:32:21;;;;;;;5.77;5.27;;;;;;;15.61;nan;95826.31;5007764;28;20239;-62
2023/08/01 04:34:49;;;;;;;6.10;5.60;;;;;;;15.60;nan;95821.25;5014363;28;20583;-63
2023/08/01 04:37:20;;;;;;;5.87;5.27;;;;;;;15.56;nan;95825.47;4964769;28;20228;-62
2023/08/01 04:39:48;;;;;;;7.17;5.20;;;;;;;15.37;nan;95803.63;5012594;28;20220;-63
2023/08/01 04:42:15;;;;;;;6.13;5.57;;;;;;;15.53;nan;95825.94;4898418;28;20232;-63
2023/08/01 04:44:43;;;;;;;7.57;5.77;;;;;;;15.48;nan;95826.69;5019145;28;20521;-62
2023/08/01 04:47:11;;;;;;;6.53;5.90;;;;;;;15.48;nan;95798.13;4886380;28;20241;-63
2023/08/01 04:49:40;;;;;;;8.23;6.43;;;;;;;15.47;nan;95806.41;5015324;28;20208;-64
2023/08/01 04:52:08;;;;;;;6.40;5.80;;;;;;;15.40;nan;95803.13;5008577;28;20224;-64
2023/08/01 04:54:36;;;;;;;6.83;6.20;;;;;;;15.38;nan;95795.34;5014070;28;20711;-64
2023/08/01 04:57:04;;;;;;;6.37;5.83;;;;;;;15.36;nan;95796.66;4958043;28;20231;-64
2023/08/01 04:59:32;;;;;;;6.20;5.63;;;;;;;15.25;nan;95793.84;5011743;28;20215;-65
2023/08/01 05:01:59;;;;;;;6.83;6.20;;;;;;;15.25;nan;95788.53;5010506;28;20931;-64
2023/08/01 05:04:27;;;;;;;7.00;6.30;;;;;;;15.22;nan;95778.34;5012662;28;20319;-63
2023/08/01 05:06:56;;;;;;;7.23;6.63;;;;;;;15.16;nan;95771.34;4964017;28;20212;-64
2023/08/01 05:09:24;;;;;;;7.13;6.43;;;;;;;15.17;nan;95768.44;5015424;28;20212;-63
2023/08/01 05:11:52;;;;;;;6.53;5.93;;;;;;;15.22;nan;95765.00;4953032;28;21665;-63
2023/08/01 05:14:19;;;;;;;6.87;5.87;;;;;;;15.29;nan;95764.81;5016807;28;20216;-63
2023/08/01 05:16:47;;;;;;;5.93;5.43;;;;;;;15.36;nan;95769.97;5009038;28;20210;-64
2023/08/01 05:19:15;;;;;;;6.07;5.47;;;;;;;15.36;nan;95764.66;5019409;28;20208;-66
2023/08/01 05:21:43;;;;;;;6.67;5.93;;;;;;;15.39;nan;95766.81;4932569;28;20259;-65
2023/08/01 05:24:12;;;;;;;6.30;5.73;;;;;;;15.42;nan;95759.09;5004606;28;20224;-63
2023/08/01 05:26:40;;;;;;;6.53;5.90;;;;;;;15.37;nan;95753.72;4967331;28;20212;-65
2023/08/01 05:29:08;;;;;;;5.93;5.40;;;;;;;15.46;nan;95765.53;5004798;28;20203;-63
2023/08/01 05:31:36;;;;;;;6.63;5.83;;;;;;;15.40;nan;95761.22;5014247;28;20227;-64
2023/08/01 05:34:05;;;;;;;6.67;5.37;;;;;;;15.43;nan;95757.25;5010612;28;20205;-63
2023/08/01 05:36:33;;;;;;;7.10;5.40;;;;;;;15.29;nan;95743.47;4981557;28;20319;-63
2023/08/01 05:39:01;;;;;;;5.30;4.90;;;;;;;15.47;nan;95756.47;4994833;28;20306;-63
2023/08/01 05:41:30;;;;;;;5.53;5.03;;;;;;;15.51;nan;95762.13;4986080;28;20281;-63
2023/08/01 05:44:00;;;;;;;5.40;5.00;;;;;;;15.52;nan;95763.75;4994103;28;20277;-62
2023/08/01 05:46:28;;;;;;;5.80;5.30;;;;;;;15.55;nan;95763.25;5012948;28;20750;-63
2023/08/01 05:48:55;;;;;;;5.47;4.83;;;;;;;15.52;nan;95757.59;5008823;28;20790;-63
2023/08/01 05:51:23;;;;;;;6.70;5.73;;;;;;;15.57;nan;95755.00;5009452;28;20715;-64
2023/08/01 05:53:51;;;;;;;6.20;5.70;;;;;;;15.57;nan;95750.44;4977677;28;21009;-63
2023/08/01 05:56:19;;;;;;;5.20;4.80;;;;;;;15.66;nan;95755.34;4976670;28;20216;-62
2023/08/01 05:58:50;;;;;;;5.97;5.43;;;;;;;15.70;nan;95753.78;4954202;28;20228;-61
2023/08/01 06:01:17;;;;;;;5.70;5.07;;;;;;;15.67;nan;95748.94;5012642;28;20219;-63
2023/08/01 06:03:45;;;;;;;5.30;4.90;;;;;;;15.72;nan;95754.31;5012272;28;20322;-63
2023/08/01 06:06:13;;;;;;;5.20;4.70;;;;;;;15.75;nan;95735.94;5012456;28;20204;-64
2023/08/01 06:08:41;;;;;;;5.70;5.20;;;;;;;15.83;nan;95741.88;5011959;28;20617;-63
2023/08/01 06:11:09;;;;;;;5.10;4.70;;;;;;;15.58;nan;95713.91;5011201;28;20200;-63
2023/08/01 06:13:36;;;;;;;6.40;5.40;;;;;;;15.69;nan;95728.94;4967671;28;20205;-64
2023/08/01 06:16:05;;;;;;;7.87;5.67;;;;;;;15.74;nan;95729.00;5013590;28;20212;-64
2023/08/01 06:18:33;;;;;;;5.90;5.37;;;;;;;15.72;nan;95708.94;4963178;28;20223;-63
2023/08/01 06:21:02;;;;;;;5.97;5.37;;;;;;;15.72;nan;95712.44;5012178;28;20234;-64
2023/08/01 06:23:30;;;;;;;5.77;5.27;;;;;;;15.72;nan;95712.44;5011554;28;20604;-65
2023/08/01 06:25:57;;;;;;;5.77;5.20;;;;;;;15.78;nan;95703.41;5011842;28;20280;-65
2023/08/01 06:28:25;;;;;;;6.10;5.60;;;;;;;15.87;nan;95700.25;4884297;28;20699;-64
2023/08/01 06:30:53;;;;;;;6.77;5.40;;;;;;;15.77;nan;95717.03;5014606;28;20213;-64
2023/08/01 06:33:22;;;;;;;6.83;6.07;;;;;;;15.80;nan;95713.84;4953987;28;20741;-64
2023/08/01 06:35:50;;;;;;;6.17;5.57;;;;;;;15.82;nan;95719.72;5008192;28;20208;-63
2023/08/01 06:38:17;;;;;;;5.13;4.47;;;;;;;15.90;nan;95718.47;5010224;28;20603;-63
2023/08/01 06:40:45;;;;;;;5.37;4.97;;;;;;;15.97;nan;95723.63;5010964;28;20204;-64
2023/08/01 06:43:13;;;;;;;5.80;5.30;;;;;;;15.98;nan;95711.88;4954554;28;20247;-63
2023/08/01 06:45:40;;;;;;;5.80;5.30;;;;;;;15.96;nan;95719.34;5012389;28;20213;-63
2023/08/01 06:48:09;;;;;;;6.00;5.30;;;;;;;16.03;nan;95717.25;4962107;28;20234;-63
2023/08/01 06:50:38;;;;;;;6.30;5.30;;;;;;;15.99;nan;95724.97;5011566;28;20205;-63
2023/08/01 06:53:06;;;;;;;5.93;5.23;;;;;;;15.99;nan;95727.66;4957119;28;20239;-62
2023/08/01 06:55:33;;;;;;;5.33;4.93;;;;;;;15.94;nan;95721.44;5012478;28;20635;-63
2023/08/01 06:58:01;;;;;;;6.97;6.03;;;;;;;16.01;nan;95717.53;5005862;28;20624;-63
2023/08/01 07:00:29;;;;;;;6.07;5.47;;;;;;;16.06;nan;95724.75;5010840;28;20208;-62
2023/08/01 07:02:56;;;;;;;5.37;4.87;;;;;;;16.02;nan;95720.97;4883102;28;20239;-62
2023/08/01 07:05:24;;;;;;;5.83;5.33;;;;;;;16.01;nan;95716.69;5014454;28;20201;-64
2023/08/01 07:07:53;;;;;;;5.77;5.20;;;;;;;15.93;nan;95723.34;5004759;28;20217;-63
2023/08/01 07:10:21;;;;;;;6.00;5.40;;;;;;;16.06;nan;95735.44;5012962;28;20208;-64
2023/08/01 07:12:48;;;;;;;5.83;5.30;;;;;;;16.17;nan;95742.50;4958702;28;20228;-64
2023/08/01 07:15:16;;;;;;;5.70;5.30;;;;;;;16.29;nan;95744.19;5010068;28;20200;-64
2023/08/01 07:17:44;;;;;;;6.10;5.60;;;;;;;16.34;nan;95753.06;4962084;28;20208;-63
2023/08/01 07:20:12;;;;;;;6.03;5.43;;;;;;;16.44;nan;95756.84;5008172;28;20785;-66
2023/08/01 07:22:41;;;;;;;5.53;5.03;;;;;;;16.55;nan;95761.19;4957183;28;20747;-64
2023/08/01 07:25:11;;;;;;;7.50;6.67;;;;;;;16.52;nan;95761.72;5005678;28;20236;-64
2023/08/01 07:27:39;;;;;;;5.43;5.03;;;;;;;16.55;nan;95760.41;5002682;28;20217;-63
2023/08/01 07:30:08;;;;;;;6.13;5.63;;;;;;;16.58;nan;95760.69;5010351;28;20223;-64
2023/08/01 07:32:37;;;;;;;6.20;5.60;;;;;;;16.78;nan;95765.34;5005027;28;20798;-64
2023/08/01 07:35:06;;;;;;;5.60;5.10;;;;;;;16.84;nan;95768.88;5009820;28;20584;-64
2023/08/01 07:37:34;;;;;;;5.57;5.10;;;;;;;16.84;nan;95754.69;5002653;28;20239;-62
2023/08/01 07:40:01;;;;;;;6.00;5.43;;;;;;;17.04;nan;95759.34;5009447;28;20208;-63
2023/08/01 07:42:30;;;;;;;6.03;5.53;;;;;;;17.09;nan;95755.91;5005227;28;20236;-63
2023/08/01 07:44:58;;;;;;;6.00;5.50;;;;;;;17.10;nan;95750.31;4999099;28;20228;-64
2023/08/01 07:47:26;;;;;;;5.63;5.03;;;;;;;17.42;nan;95753.91;5010839;28;20212;-64
2023/08/01 07:52:35;;;;;;;5.33;4.93;;;;;;;17.53;nan;95749.38;4955478;22;20627;-62
2023/08/01 07:55:03;;;;;;;5.50;5.10;;;;;;;17.47;nan;95749.38;4979953;28;20220;-61
2023/08/01 07:57:33;;;;;;;6.23;5.63;;;;;;;17.56;nan;95752.31;4997451;28;20338;-63
2023/08/01 08:00:00;;;;;;;5.70;5.20;;;;;;;17.57;nan;95748.59;4993537;28;20216;-63
2023/08/01 08:02:28;;;;;;;6.13;5.63;;;;;;;17.34;nan;95733.78;4990354;28;20229;-63
2023/08/01 08:04:56;;;;;;;5.20;4.80;;;;;;;17.39;nan;95736.47;4993791;28;20893;-64
2023/08/01 08:07:24;;;;;;;5.43;5.03;;;;;;;17.39;nan;95738.38;4994916;28;20210;-64
2023/08/01 08:09:54;;;;;;;5.60;5.10;;;;;;;17.39;nan;95733.00;4994761;28;20239;-64
2023/08/01 08:12:23;;;;;;;6.00;5.40;;;;;;;17.28;nan;95732.16;4994978;28;20258;-63
2023/08/01 08:14:52;;;;;;;5.67;5.27;;;;;;;17.15;nan;95734.28;4992222;28;20205;-63
2023/08/01 08:17:20;;;;;;;5.77;5.20;;;;;;;17.05;nan;95761.00;4993714;28;20228;-62
2023/08/01 08:19:47;;;;;;;6.27;5.50;;;;;;;17.18;nan;95765.03;4996731;28;20228;-63
2023/08/01 08:22:15;;;;;;;5.27;4.87;;;;;;;17.19;nan;95775.50;4988643;28;21235;-61
2023/08/01 08:24:43;;;;;;;8.20;5.90;;;;;;;17.17;nan;95780.31;4988593;28;20218;-66
2023/08/01 08:27:10;;;;;;;6.27;5.80;;;;;;;17.14;nan;95780.84;4995673;28;20205;-63
2023/08/01 08:29:38;;;;;;;5.97;5.53;;;;;;;17.00;nan;95779.69;4996613;28;20212;-62
2023/08/01 08:32:08;;;;;;;6.33;5.70;;;;;;;16.95;nan;95785.78;4995758;28;20244;-63
2023/08/01 08:34:36;;;;;;;6.73;5.80;;;;;;;16.95;nan;95769.75;4992842;28;20589;-62
2023/08/01 08:37:04;;;;;;;6.47;5.77;;;;;;;16.86;nan;95758.72;4997165;28;20201;-64
2023/08/01 08:39:32;;;;;;;6.20;5.70;;;;;;;16.90;nan;95751.00;5000453;28;20733;-62
2023/08/01 08:42:00;;;;;;;6.17;5.67;;;;;;;16.86;nan;95747.22;4998743;28;20236;-61
2023/08/01 08:44:30;;;;;;;6.73;6.03;;;;;;;17.00;nan;95759.09;4998394;28;20236;-62
2023/08/01 08:47:02;;;;;;;6.13;5.57;;;;;;;17.19;nan;95750.59;5000769;28;20325;-62
2023/08/01 08:49:33;;;;;;;6.03;5.43;;;;;;;17.25;nan;95744.22;4995557;28;20205;-62
2023/08/01 08:52:00;;;;;;;6.77;6.03;;;;;;;17.34;nan;95747.19;4995202;28;20233;-65
2023/08/01 08:54:29;;;;;;;6.83;6.17;;;;;;;17.47;nan;95753.91;4997263;28;20224;-63
2023/08/01 08:56:57;;;;;;;6.10;5.50;;;;;;;17.56;nan;95759.56;4997896;28;20209;-62
2023/08/01 08:59:26;;;;;;;6.20;5.67;;;;;;;17.49;nan;95757.13;4998598;28;20231;-63
2023/08/01 09:01:53;;;;;;;6.00;5.50;;;;;;;17.55;nan;95748.03;4994918;28;20233;-63
2023/08/01 09:04:21;;;;;;;6.50;5.87;;;;;;;17.58;nan;95754.75;4999681;28;20244;-64
2023/08/01 09:06:52;;;;;;;6.43;5.83;;;;;;;17.58;nan;95744.03;4997801;28;20676;-62
2023/08/01 09:09:22;;;;;;;6.30;5.67;;;;;;;17.47;nan;95751.25;4995044;28;20217;-63
2023/08/01 09:11:51;;;;;;;7.53;6.93;;;;;;;17.60;nan;95741.91;5001035;28;20233;-63
2023/08/01 09:14:20;;;;;;;7.13;6.43;;;;;;;17.73;nan;95751.31;5000261;28;20251;-62
2023/08/01 09:16:48;;;;;;;7.93;5.70;;;;;;;17.86;nan;95748.09;5000057;28;20629;-63
2023/08/01 09:19:18;;;;;;;7.60;5.90;;;;;;;17.84;nan;95754.81;4998627;28;20217;-63
2023/08/01 09:21:46;;;;;;;7.30;6.60;;;;;;;17.71;nan;95772.19;4997625;28;20236;-63
2023/08/01 09:24:16;;;;;;;6.83;6.23;;;;;;;17.60;nan;95757.97;5000917;28;20227;-63
2023/08/01 09:26:44;;;;;;;6.97;5.97;;;;;;;17.72;nan;95752.38;5005472;28;20205;-63
2023/08/01 09:29:12;;;;;;;5.20;4.80;;;;;;;17.73;nan;95754.78;5002534;28;20209;-62
2023/08/01 09:31:41;;;;;;;6.07;5.57;;;;;;;17.43;nan;95758.19;4994427;28;20308;-60
2023/08/01 09:34:19;;;;;;;6.10;5.60;;;;;;;17.52;nan;95764.63;4997459;28;20661;-64
2023/08/01 09:36:47;;;;;;;6.73;6.10;;;;;;;17.43;nan;95764.38;4994885;28;20212;-63
2023/08/01 09:39:18;;;;;;;6.53;6.00;;;;;;;17.46;nan;95738.91;4994420;28;20213;-64
2023/08/01 09:41:46;;;;;;;6.30;5.80;;;;;;;17.49;nan;95727.69;4998656;28;20224;-62
2023/08/01 09:44:16;;;;;;;6.50;5.87;;;;;;;17.44;nan;95727.66;4998050;28;20875;-63
2023/08/01 09:46:44;;;;;;;5.80;5.33;;;;;;;17.32;nan;95704.63;4995665;28;20205;-65
2023/08/01 09:49:13;;;;;;;6.33;5.17;;;;;;;17.30;nan;95676.50;4997988;28;20266;-63
2023/08/01 09:51:48;;;;;;;5.80;5.20;;;;;;;17.43;nan;95677.88;4992058;28;20225;-62
2023/08/01 09:54:18;;;;;;;5.87;5.23;;;;;;;17.56;nan;95677.34;4992850;28;20217;-64
2023/08/01 09:56:47;;;;;;;5.67;5.23;;;;;;;17.74;nan;95688.63;4997082;28;20216;-64
2023/08/01 09:59:16;;;;;;;5.60;4.57;;;;;;;17.69;nan;95696.66;4995489;28;20252;-63
2023/08/01 10:01:45;;;;;;;5.60;5.00;;;;;;;17.90;nan;95695.59;4999970;28;20232;-64
2023/08/01 10:04:13;;;;;;;5.40;5.00;;;;;;;18.17;nan;95678.47;4998249;28;20216;-61
2023/08/01 10:06:44;;;;;;;7.17;5.67;;;;;;;18.56;nan;95673.59;4998850;28;20232;-61
2023/08/01 10:09:11;;;;;;;5.40;4.90;;;;;;;18.44;nan;95706.88;4995551;28;20216;-63
2023/08/01 10:11:41;;;;;;;6.13;5.20;;;;;;;18.69;nan;95685.63;4995090;28;20754;-63
2023/08/01 10:14:09;;;;;;;6.23;5.67;;;;;;;18.86;nan;95688.00;4994921;28;20205;-63
2023/08/01 10:16:37;;;;;;;6.57;5.40;;;;;;;19.14;nan;95691.13;4993629;28;20212;-64
2023/08/01 10:19:07;;;;;;;5.93;4.57;;;;;;;19.28;nan;95692.13;4997586;28;20662;-65
2023/08/01 10:21:34;;;;;;;5.33;4.90;;;;;;;19.35;nan;95686.47;4891623;28;20236;-67
2023/08/01 10:24:04;;;;;;;5.17;4.77;;;;;;;19.16;nan;95691.66;4994225;28;20687;-65
2023/08/01 10:26:32;;;;;;;4.80;4.40;;;;;;;19.14;nan;95665.09;4943807;28;21117;-67
2023/08/01 10:29:02;;;;;;;5.20;4.70;;;;;;;19.39;nan;95682.16;4995480;28;20320;-65
2023/08/01 10:31:30;;;;;;;4.60;4.20;;;;;;;19.50;nan;95689.06;4942741;28;20671;-64
2023/08/01 10:34:06;;;;;;;4.67;4.20;;;;;;;19.52;nan;95676.16;4995481;28;20674;-63
2023/08/01 10:36:34;;;;;;;5.10;4.60;;;;;;;19.33;nan;95694.78;4932987;28;20213;-64
2023/08/01 10:39:02;;;;;;;5.60;5.10;;;;;;;18.82;nan;95689.63;4991628;28;20218;-63
2023/08/01 10:41:32;;;;;;;4.50;4.10;;;;;;;18.80;nan;95696.06;4948586;28;20929;-64
2023/08/01 10:44:12;;;;;;;5.80;5.30;;;;;;;18.71;nan;95691.53;4991620;28;20216;-63
2023/08/01 10:46:47;;;;;;;5.90;5.17;;;;;;;18.99;nan;95689.31;4992706;28;20573;-63
2023/08/01 10:49:15;;;;;;;5.10;4.70;;;;;;;19.37;nan;95684.31;4997011;28;20209;-63
2023/08/01 10:51:43;;;;;;;5.07;4.57;;;;;;;19.64;nan;95658.88;4990551;28;20232;-65
2023/08/01 10:54:22;;;;;;;5.10;4.60;;;;;;;19.72;nan;95682.47;4995004;28;20220;-64
2023/08/01 10:56:52;;;;;;;4.80;4.50;;;;;;;19.45;nan;95682.91;4882055;28;20731;-61
2023/08/01 10:59:22;;;;;;;5.40;4.90;;;;;;;19.21;nan;95684.38;4995851;28;20326;-64
2023/08/01 11:01:50;;;;;;;5.33;4.83;;;;;;;19.00;nan;95680.97;4958990;28;20269;-65
2023/08/01 11:04:19;;;;;;;4.83;4.33;;;;;;;18.71;nan;95667.38;4993858;28;20213;-64
2023/08/01 11:06:47;;;;;;;7.17;5.60;;;;;;;18.31;nan;95675.25;4991050;28;20635;-63
2023/08/01 11:09:19;;;;;;;4.90;4.50;;;;;;;18.68;nan;95670.59;4991616;28;20201;-64
2023/08/01 11:11:51;;;;;;;5.77;5.23;;;;;;;19.12;nan;95675.28;4942494;28;20239;-64
2023/08/01 11:14:22;;;;;;;5.30;4.87;;;;;;;19.28;nan;95672.53;4996491;28;20208;-60
2023/08/01 11:16:50;;;;;;;5.03;4.40;;;;;;;19.67;nan;95652.94;4991573;28;20224;-63
2023/08/01 11:19:20;;;;;;;5.57;5.07;;;;;;;19.76;nan;95642.41;4994762;28;20239;-64
2023/08/01 11:21:48;;;;;;;5.00;4.43;;;;;;;19.83;nan;95615.22;4994627;28;20225;-64
2023/08/01 11:24:16;;;;;;;5.37;4.97;;;;;;;19.93;nan;95637.47;4991904;28;20239;-63
2023/08/01 11:26:44;;;;;;;5.97;5.07;;;;;;;19.44;nan;95660.63;4883806;28;20228;-64
2023/08/01 11:29:13;;;;;;;5.17;4.67;;;;;;;19.14;nan;95648.97;4994387;28;20596;-62
2023/08/01 11:31:42;;;;;;;5.33;4.93;;;;;;;18.98;nan;95640.19;4992105;28;20837;-65
2023/08/01 11:34:10;;;;;;;5.47;4.97;;;;;;;19.02;nan;95649.28;4992917;28;20246;-64
2023/08/01 11:36:38;;;;;;;4.90;4.50;;;;;;;18.89;nan;95663.28;4988433;28;20468;-62
2023/08/01 11:39:06;;;;;;;9.27;8.33;;;;;;;18.47;nan;95671.47;4992405;28;20208;-62
2023/08/01 11:41:34;;;;;;;5.70;5.10;;;;;;;18.33;nan;95665.03;4990196;28;20229;-61
2023/08/01 11:44:04;;;;;;;5.57;5.17;;;;;;;18.30;nan;95668.28;4993943;28;20220;-64
2023/08/01 11:46:32;;;;;;;5.37;5.00;;;;;;;18.09;nan;95665.63;4940449;28;20229;-62
2023/08/01 11:49:01;;;;;;;5.30;4.90;;;;;;;18.08;nan;95655.97;4992767;28;20304;-64
2023/08/01 11:51:29;;;;;;;5.70;5.13;;;;;;;18.00;nan;95662.66;4990704;28;20232;-63
2023/08/01 11:54:01;;;;;;;5.40;5.00;;;;;;;18.30;nan;95674.44;4952427;28;1117082;-64
2023/08/01 11:56:29;;;;;;;5.50;4.73;;;;;;;18.76;nan;95678.91;4991633;28;20302;-64
2023/08/01 11:58:56;;;;;;;5.00;4.60;;;;;;;19.15;nan;95671.25;4994104;28;20224;-65